4XCWR LLMZ-LLHZ
Flight info
| Callsign | 4XCWR |
|---|---|
| Flight time | 0h 58m |
| Altitude | 4000 |
| Route | MMORR ARRAD TARAD MYTAR SOKET LAHAV BKAMA NOAAM REVAH HODYA NITZA ZDAFA NMASD ZASHD YAVNE NAGID BOVED NTAIM MRISN LLBG PARDS ROKCH RIDNG HTZUK ARENA APOLN SFAIM VINGT PELEG SHARO HADRA EIRON ZMGID AFULA TAVOR DESHE AMNON LLIB AMNON DESHE ZALMN SEGEV EVLYM GILAM LLHA GALIM DAROM HOTRM BOREN FRDIS HADRA SHARO DEROR BAZRA |
| Aircraft | C172/L-SD/C |
Departure
| Time | 2026-04-22 09:53 |
|---|---|
| Airport | Bar Yehuda Airfield (LLMZ) |
Arrival
| Time | 2026-04-22 10:51 |
|---|---|
| Airport | Herzliya Airport (LLHZ) |
| Time | Latitude | Longitude | Altitude | Speed | Heading |
|---|---|---|---|---|---|
| 2026-04-22 09:47 | 31.32913 | 35.38818 | -1226 ft | 0 kts | 64° |
| 2026-04-22 09:50 | 31.32913 | 35.38819 | -1229 ft | 2 kts | 57° |
| 2026-04-22 09:50 | 31.32934 | 35.38858 | -1228 ft | 10 kts | 64° |
| 2026-04-22 09:51 | 31.33005 | 35.38890 | -1232 ft | 14 kts | 9° |
| 2026-04-22 09:51 | 31.33116 | 35.38913 | -1224 ft | 18 kts | 9° |
| 2026-04-22 09:51 | 31.33226 | 35.38933 | -1222 ft | 13 kts | 10° |
| 2026-04-22 09:51 | 31.33299 | 35.38944 | -1220 ft | 5 kts | 53° |
| 2026-04-22 09:52 | 31.33278 | 35.38945 | -1220 ft | 8 kts | 211° |
| 2026-04-22 09:52 | 31.33267 | 35.38942 | -1221 ft | 0 kts | 186° |
| 2026-04-22 09:52 | 31.33192 | 35.38928 | -1223 ft | 37 kts | 191° |
| 2026-04-22 09:52 | 31.32758 | 35.38839 | -1204 ft | 82 kts | 190° |
| 2026-04-22 09:53 | 31.32204 | 35.38724 | -934 ft | 76 kts | 190° |
| 2026-04-22 09:53 | 31.31674 | 35.38626 | -651 ft | 80 kts | 183° |
| 2026-04-22 09:53 | 31.31148 | 35.38524 | -373 ft | 75 kts | 189° |
| 2026-04-22 09:53 | 31.30643 | 35.38432 | -56 ft | 71 kts | 188° |
| 2026-04-22 09:54 | 31.30140 | 35.38342 | 110 ft | 83 kts | 191° |
| 2026-04-22 09:54 | 31.29563 | 35.38227 | 373 ft | 82 kts | 187° |
| 2026-04-22 09:54 | 31.29004 | 35.38173 | 572 ft | 81 kts | 186° |
| 2026-04-22 09:54 | 31.28444 | 35.38118 | 735 ft | 78 kts | 176° |
| 2026-04-22 09:55 | 31.27836 | 35.38130 | 957 ft | 89 kts | 181° |
| 2026-04-22 09:55 | 31.27246 | 35.38102 | 1175 ft | 83 kts | 188° |
| 2026-04-22 09:55 | 31.26709 | 35.38045 | 1403 ft | 82 kts | 186° |
| 2026-04-22 09:55 | 31.26242 | 35.37795 | 1600 ft | 79 kts | 241° |
| 2026-04-22 09:56 | 31.26218 | 35.37203 | 1751 ft | 71 kts | 298° |
| 2026-04-22 09:56 | 31.26409 | 35.36670 | 1853 ft | 67 kts | 282° |
| 2026-04-22 09:56 | 31.26481 | 35.36102 | 2019 ft | 71 kts | 287° |
| 2026-04-22 09:56 | 31.26626 | 35.35540 | 2105 ft | 79 kts | 298° |
| 2026-04-22 09:57 | 31.26673 | 35.34934 | 2366 ft | 73 kts | 271° |
| 2026-04-22 09:57 | 31.26683 | 35.34316 | 2468 ft | 80 kts | 272° |
| 2026-04-22 09:57 | 31.26618 | 35.33697 | 2662 ft | 77 kts | 265° |
| 2026-04-22 09:57 | 31.26575 | 35.33055 | 2830 ft | 76 kts | 265° |
| 2026-04-22 09:58 | 31.26547 | 35.32424 | 2971 ft | 80 kts | 271° |
| 2026-04-22 09:58 | 31.26553 | 35.31783 | 3156 ft | 80 kts | 269° |
| 2026-04-22 09:58 | 31.26526 | 35.31133 | 3322 ft | 79 kts | 264° |
| 2026-04-22 09:58 | 31.26443 | 35.30496 | 3457 ft | 80 kts | 254° |
| 2026-04-22 09:59 | 31.26354 | 35.29865 | 3656 ft | 72 kts | 260° |
| 2026-04-22 09:59 | 31.26284 | 35.29228 | 3743 ft | 84 kts | 262° |
| 2026-04-22 09:59 | 31.26205 | 35.28598 | 3896 ft | 84 kts | 259° |
| 2026-04-22 09:59 | 31.26135 | 35.27865 | 3958 ft | 95 kts | 264° |
| 2026-04-22 10:00 | 31.26121 | 35.27070 | 3920 ft | 103 kts | 269° |
| 2026-04-22 10:00 | 31.26127 | 35.26239 | 3984 ft | 103 kts | 268° |
| 2026-04-22 10:00 | 31.26155 | 35.25398 | 4000 ft | 107 kts | 270° |
| 2026-04-22 10:00 | 31.26193 | 35.24527 | 4025 ft | 108 kts | 274° |
| 2026-04-22 10:01 | 31.26257 | 35.23619 | 3976 ft | 114 kts | 277° |
| 2026-04-22 10:01 | 31.26339 | 35.22687 | 3952 ft | 115 kts | 277° |
| 2026-04-22 10:01 | 31.26441 | 35.21757 | 3937 ft | 116 kts | 279° |
| 2026-04-22 10:01 | 31.26554 | 35.20829 | 3944 ft | 115 kts | 277° |
| 2026-04-22 10:02 | 31.26657 | 35.19909 | 3934 ft | 112 kts | 282° |
| 2026-04-22 10:02 | 31.26848 | 35.19030 | 3917 ft | 113 kts | 286° |
| 2026-04-22 10:02 | 31.27038 | 35.18140 | 3912 ft | 112 kts | 284° |
| 2026-04-22 10:02 | 31.27252 | 35.17271 | 3906 ft | 112 kts | 289° |
| 2026-04-22 10:03 | 31.27487 | 35.16400 | 3924 ft | 111 kts | 287° |
| 2026-04-22 10:03 | 31.27686 | 35.15524 | 3907 ft | 112 kts | 283° |
| 2026-04-22 10:03 | 31.27817 | 35.14645 | 3943 ft | 108 kts | 280° |
| 2026-04-22 10:03 | 31.27937 | 35.13778 | 3940 ft | 108 kts | 279° |
| 2026-04-22 10:04 | 31.28041 | 35.12941 | 3996 ft | 105 kts | 278° |
| 2026-04-22 10:04 | 31.28091 | 35.12071 | 3990 ft | 108 kts | 274° |
| 2026-04-22 10:04 | 31.28128 | 35.11174 | 3968 ft | 112 kts | 273° |
| 2026-04-22 10:04 | 31.28144 | 35.10278 | 3988 ft | 112 kts | 275° |
| 2026-04-22 10:05 | 31.28229 | 35.09374 | 3990 ft | 111 kts | 277° |
| 2026-04-22 10:05 | 31.28335 | 35.08476 | 3985 ft | 111 kts | 280° |
| 2026-04-22 10:05 | 31.28469 | 35.07559 | 3914 ft | 116 kts | 282° |
| 2026-04-22 10:05 | 31.28625 | 35.06650 | 3956 ft | 112 kts | 281° |
| 2026-04-22 10:06 | 31.28746 | 35.05742 | 3949 ft | 114 kts | 279° |
| 2026-04-22 10:06 | 31.28868 | 35.04844 | 3954 ft | 113 kts | 280° |
| 2026-04-22 10:06 | 31.29011 | 35.03941 | 3923 ft | 113 kts | 283° |
| 2026-04-22 10:06 | 31.29182 | 35.03035 | 3908 ft | 114 kts | 283° |
| 2026-04-22 10:07 | 31.29375 | 35.02146 | 3926 ft | 112 kts | 287° |
| 2026-04-22 10:07 | 31.29579 | 35.01266 | 3891 ft | 114 kts | 285° |
| 2026-04-22 10:07 | 31.29730 | 35.00350 | 3883 ft | 113 kts | 277° |
| 2026-04-22 10:07 | 31.29871 | 34.99472 | 3923 ft | 110 kts | 285° |
| 2026-04-22 10:08 | 31.30100 | 34.98619 | 3911 ft | 110 kts | 292° |
| 2026-04-22 10:08 | 31.30409 | 34.97832 | 3965 ft | 105 kts | 299° |
| 2026-04-22 10:08 | 31.30733 | 34.97040 | 3984 ft | 108 kts | 297° |
| 2026-04-22 10:08 | 31.31066 | 34.96245 | 3962 ft | 113 kts | 299° |
| 2026-04-22 10:09 | 31.31434 | 34.95401 | 3914 ft | 115 kts | 292° |
| 2026-04-22 10:09 | 31.31591 | 34.94502 | 3946 ft | 115 kts | 274° |
| 2026-04-22 10:09 | 31.31503 | 34.93562 | 3932 ft | 115 kts | 258° |
| 2026-04-22 10:09 | 31.31273 | 34.92671 | 3931 ft | 116 kts | 252° |
| 2026-04-22 10:10 | 31.30990 | 34.91782 | 3937 ft | 115 kts | 249° |
| 2026-04-22 10:10 | 31.30809 | 34.90912 | 3908 ft | 102 kts | 277° |
| 2026-04-22 10:10 | 31.31099 | 34.90250 | 3844 ft | 88 kts | 313° |
| 2026-04-22 10:10 | 31.31523 | 34.89705 | 3667 ft | 91 kts | 315° |
| 2026-04-22 10:11 | 31.31936 | 34.89172 | 3535 ft | 90 kts | 313° |
| 2026-04-22 10:11 | 31.32389 | 34.88607 | 3405 ft | 101 kts | 316° |
| 2026-04-22 10:11 | 31.32911 | 34.88048 | 3448 ft | 99 kts | 320° |
| 2026-04-22 10:11 | 31.33470 | 34.87513 | 3377 ft | 108 kts | 324° |
| 2026-04-22 10:12 | 31.34077 | 34.87022 | 3440 ft | 101 kts | 328° |
| 2026-04-22 10:12 | 31.34638 | 34.86498 | 3448 ft | 104 kts | 320° |
| 2026-04-22 10:12 | 31.35175 | 34.85917 | 3475 ft | 107 kts | 316° |
| 2026-04-22 10:12 | 31.35669 | 34.85282 | 3570 ft | 101 kts | 310° |
| 2026-04-22 10:13 | 31.36152 | 34.84584 | 3409 ft | 114 kts | 310° |
| 2026-04-22 10:13 | 31.36620 | 34.83860 | 3352 ft | 112 kts | 310° |
| 2026-04-22 10:13 | 31.37060 | 34.83222 | 3503 ft | 102 kts | 310° |
| 2026-04-22 10:13 | 31.37513 | 34.82566 | 3498 ft | 105 kts | 309° |
| 2026-04-22 10:14 | 31.37965 | 34.81867 | 3464 ft | 110 kts | 305° |
| 2026-04-22 10:14 | 31.38396 | 34.81133 | 3506 ft | 109 kts | 308° |
| 2026-04-22 10:14 | 31.38847 | 34.80415 | 3501 ft | 112 kts | 310° |
| 2026-04-22 10:14 | 31.39322 | 34.79702 | 3472 ft | 113 kts | 309° |
| 2026-04-22 10:15 | 31.39868 | 34.79053 | 3475 ft | 112 kts | 328° |
| 2026-04-22 10:15 | 31.40522 | 34.78718 | 3498 ft | 90 kts | 340° |
| 2026-04-22 10:15 | 31.41110 | 34.78544 | 3391 ft | 84 kts | 350° |
| 2026-04-22 10:15 | 31.41688 | 34.78472 | 3287 ft | 83 kts | 355° |
| 2026-04-22 10:16 | 31.42278 | 34.78394 | 3146 ft | 85 kts | 351° |
| 2026-04-22 10:16 | 31.42875 | 34.78321 | 2993 ft | 90 kts | 353° |
| 2026-04-22 10:16 | 31.43551 | 34.78256 | 2881 ft | 101 kts | 355° |
| 2026-04-22 10:16 | 31.44238 | 34.78206 | 2992 ft | 96 kts | 353° |
| 2026-04-22 10:17 | 31.44955 | 34.78148 | 3023 ft | 105 kts | 356° |
| 2026-04-22 10:17 | 31.45721 | 34.78091 | 2958 ft | 114 kts | 356° |
| 2026-04-22 10:17 | 31.46529 | 34.78051 | 2991 ft | 115 kts | 360° |
| 2026-04-22 10:17 | 31.47337 | 34.78061 | 3023 ft | 115 kts | 1° |
| 2026-04-22 10:18 | 31.48133 | 34.78043 | 2976 ft | 121 kts | 355° |
| 2026-04-22 10:18 | 31.48926 | 34.77959 | 3013 ft | 113 kts | 354° |
| 2026-04-22 10:18 | 31.49712 | 34.77883 | 3002 ft | 111 kts | 354° |
| 2026-04-22 10:18 | 31.50461 | 34.77739 | 3018 ft | 106 kts | 347° |
| 2026-04-22 10:19 | 31.51182 | 34.77570 | 3019 ft | 107 kts | 348° |
| 2026-04-22 10:19 | 31.51941 | 34.77372 | 3010 ft | 111 kts | 347° |
| 2026-04-22 10:19 | 31.52651 | 34.77116 | 3052 ft | 109 kts | 346° |
| 2026-04-22 10:19 | 31.53393 | 34.76923 | 2959 ft | 111 kts | 346° |
| 2026-04-22 10:20 | 31.54147 | 34.76721 | 3058 ft | 108 kts | 349° |
| 2026-04-22 10:20 | 31.54925 | 34.76606 | 2889 ft | 119 kts | 358° |
| 2026-04-22 10:20 | 31.55686 | 34.76564 | 3028 ft | 106 kts | 352° |
| 2026-04-22 10:20 | 31.56440 | 34.76427 | 2938 ft | 112 kts | 353° |
| 2026-04-22 10:21 | 31.57187 | 34.76272 | 2911 ft | 105 kts | 348° |
| 2026-04-22 10:21 | 31.57891 | 34.76112 | 2935 ft | 103 kts | 351° |
| 2026-04-22 10:21 | 31.58614 | 34.76004 | 2837 ft | 106 kts | 355° |
| 2026-04-22 10:21 | 31.59272 | 34.75868 | 2914 ft | 98 kts | 338° |
| 2026-04-22 10:22 | 31.59799 | 34.75318 | 2893 ft | 104 kts | 320° |
| 2026-04-22 10:22 | 31.60363 | 34.74781 | 2944 ft | 106 kts | 325° |
| 2026-04-22 10:22 | 31.60983 | 34.74303 | 3030 ft | 104 kts | 330° |
| 2026-04-22 10:22 | 31.61497 | 34.73711 | 3043 ft | 104 kts | 308° |
| 2026-04-22 10:23 | 31.62065 | 34.73131 | 2931 ft | 120 kts | 330° |
| 2026-04-22 10:23 | 31.62812 | 34.72751 | 3036 ft | 113 kts | 346° |
| 2026-04-22 10:23 | 31.63533 | 34.72463 | 3021 ft | 105 kts | 346° |
| 2026-04-22 10:23 | 31.64223 | 34.72192 | 2866 ft | 102 kts | 341° |
| 2026-04-22 10:24 | 31.64627 | 34.71631 | 2766 ft | 93 kts | 282° |
| 2026-04-22 10:24 | 31.64781 | 34.70915 | 2587 ft | 90 kts | 291° |
| 2026-04-22 10:24 | 31.65060 | 34.70228 | 2412 ft | 103 kts | 301° |
| 2026-04-22 10:24 | 31.65382 | 34.69454 | 2490 ft | 97 kts | 301° |
| 2026-04-22 10:25 | 31.65752 | 34.68722 | 2498 ft | 109 kts | 301° |
| 2026-04-22 10:25 | 31.66115 | 34.67923 | 2502 ft | 115 kts | 301° |
| 2026-04-22 10:25 | 31.66527 | 34.67109 | 2470 ft | 120 kts | 303° |
| 2026-04-22 10:25 | 31.66968 | 34.66273 | 2442 ft | 120 kts | 303° |
| 2026-04-22 10:26 | 31.67401 | 34.65437 | 2429 ft | 119 kts | 303° |
| 2026-04-22 10:26 | 31.67845 | 34.64635 | 2496 ft | 118 kts | 306° |
| 2026-04-22 10:26 | 31.68330 | 34.63855 | 2519 ft | 117 kts | 309° |
| 2026-04-22 10:26 | 31.68819 | 34.63072 | 2520 ft | 120 kts | 307° |
| 2026-04-22 10:27 | 31.69304 | 34.62255 | 2480 ft | 125 kts | 309° |
| 2026-04-22 10:27 | 31.69823 | 34.61434 | 2427 ft | 123 kts | 309° |
| 2026-04-22 10:27 | 31.70340 | 34.60655 | 2408 ft | 120 kts | 313° |
| 2026-04-22 10:27 | 31.70889 | 34.59907 | 2395 ft | 122 kts | 314° |
| 2026-04-22 10:28 | 31.71465 | 34.59227 | 2422 ft | 118 kts | 318° |
| 2026-04-22 10:28 | 31.72040 | 34.58548 | 2376 ft | 114 kts | 319° |
| 2026-04-22 10:28 | 31.72542 | 34.57896 | 2487 ft | 110 kts | 315° |
| 2026-04-22 10:28 | 31.73184 | 34.57486 | 2472 ft | 109 kts | 2° |
| 2026-04-22 10:29 | 31.73891 | 34.57655 | 2445 ft | 93 kts | 20° |
| 2026-04-22 10:29 | 31.74490 | 34.57888 | 2332 ft | 89 kts | 20° |
| 2026-04-22 10:29 | 31.75066 | 34.58138 | 2202 ft | 87 kts | 22° |
| 2026-04-22 10:29 | 31.75604 | 34.58386 | 2109 ft | 82 kts | 23° |
| 2026-04-22 10:30 | 31.76139 | 34.58654 | 1905 ft | 85 kts | 24° |
| 2026-04-22 10:30 | 31.76619 | 34.58952 | 1808 ft | 80 kts | 28° |
| 2026-04-22 10:30 | 31.77080 | 34.59291 | 1679 ft | 73 kts | 28° |
| 2026-04-22 10:30 | 31.77528 | 34.59662 | 1446 ft | 83 kts | 35° |
| 2026-04-22 10:31 | 31.77939 | 34.60100 | 1334 ft | 84 kts | 36° |
| 2026-04-22 10:31 | 31.78396 | 34.60512 | 1264 ft | 83 kts | 33° |
| 2026-04-22 10:31 | 31.78850 | 34.60904 | 1212 ft | 80 kts | 28° |
| 2026-04-22 10:31 | 31.79394 | 34.61278 | 1093 ft | 102 kts | 25° |
| 2026-04-22 10:32 | 31.79989 | 34.61667 | 1195 ft | 101 kts | 27° |
| 2026-04-22 10:32 | 31.80623 | 34.62047 | 1251 ft | 102 kts | 22° |
| 2026-04-22 10:32 | 31.81313 | 34.62359 | 1201 ft | 112 kts | 19° |
| 2026-04-22 10:32 | 31.82025 | 34.62627 | 1253 ft | 102 kts | 15° |
| 2026-04-22 10:33 | 31.82746 | 34.62917 | 1128 ft | 108 kts | 19° |
| 2026-04-22 10:33 | 31.83436 | 34.63224 | 1159 ft | 108 kts | 18° |
| 2026-04-22 10:33 | 31.84145 | 34.63506 | 1122 ft | 106 kts | 16° |
| 2026-04-22 10:33 | 31.84648 | 34.64072 | 1178 ft | 106 kts | 77° |
| 2026-04-22 10:34 | 31.84633 | 34.64937 | 1259 ft | 109 kts | 96° |
| 2026-04-22 10:34 | 31.84567 | 34.65548 | 1185 ft | 122 kts | 92° |
| 2026-04-22 10:34 | 31.84469 | 34.66498 | 1273 ft | 113 kts | 96° |
| 2026-04-22 10:34 | 31.84290 | 34.67445 | 1119 ft | 122 kts | 104° |
| 2026-04-22 10:35 | 31.84091 | 34.68382 | 1158 ft | 111 kts | 96° |
| 2026-04-22 10:35 | 31.83961 | 34.69238 | 1128 ft | 104 kts | 96° |
| 2026-04-22 10:35 | 31.83823 | 34.70060 | 1120 ft | 104 kts | 89° |
| 2026-04-22 10:35 | 31.84138 | 34.70774 | 1182 ft | 96 kts | 36° |
| 2026-04-22 10:36 | 31.84747 | 34.71072 | 1220 ft | 98 kts | 20° |
| 2026-04-22 10:36 | 31.85423 | 34.71355 | 1211 ft | 105 kts | 18° |
| 2026-04-22 10:36 | 31.86110 | 34.71636 | 1167 ft | 103 kts | 18° |
| 2026-04-22 10:36 | 31.86782 | 34.71909 | 1149 ft | 99 kts | 19° |
| 2026-04-22 10:37 | 31.87414 | 34.72211 | 1161 ft | 97 kts | 22° |
| 2026-04-22 10:37 | 31.88603 | 34.73004 | 1140 ft | 98 kts | 31° |
| 2026-04-22 10:37 | 31.89151 | 34.73466 | 1145 ft | 99 kts | 29° |
| 2026-04-22 10:38 | 31.89798 | 34.73753 | 1113 ft | 101 kts | 13° |
| 2026-04-22 10:38 | 31.90486 | 34.73904 | 1127 ft | 101 kts | 0° |
| 2026-04-22 10:38 | 31.91176 | 34.73963 | 1219 ft | 98 kts | 2° |
| 2026-04-22 10:38 | 31.91884 | 34.74035 | 1213 ft | 107 kts | 2° |
| 2026-04-22 10:39 | 31.92607 | 34.74203 | 1276 ft | 104 kts | 13° |
| 2026-04-22 10:39 | 31.93289 | 34.74512 | 1271 ft | 102 kts | 22° |
| 2026-04-22 10:39 | 31.93946 | 34.74862 | 1338 ft | 105 kts | 24° |
| 2026-04-22 10:39 | 31.94614 | 34.75311 | 1276 ft | 117 kts | 36° |
| 2026-04-22 10:40 | 31.95207 | 34.76002 | 1161 ft | 117 kts | 47° |
| 2026-04-22 10:40 | 31.95536 | 34.76725 | 1155 ft | 89 kts | 65° |
| 2026-04-22 10:40 | 31.95719 | 34.77350 | 1080 ft | 78 kts | 69° |
| 2026-04-22 10:40 | 31.95864 | 34.78005 | 1080 ft | 86 kts | 66° |
| 2026-04-22 10:41 | 31.95757 | 34.78735 | 1063 ft | 105 kts | 123° |
| 2026-04-22 10:41 | 31.95334 | 34.79418 | 1152 ft | 104 kts | 128° |
| 2026-04-22 10:41 | 31.94919 | 34.80103 | 1162 ft | 100 kts | 123° |
| 2026-04-22 10:41 | 31.94493 | 34.80752 | 1134 ft | 99 kts | 131° |
| 2026-04-22 10:42 | 31.93998 | 34.81346 | 1113 ft | 103 kts | 135° |
| 2026-04-22 10:42 | 31.93497 | 34.81910 | 1228 ft | 103 kts | 133° |
| 2026-04-22 10:42 | 31.92955 | 34.82524 | 1265 ft | 115 kts | 131° |
| 2026-04-22 10:42 | 31.92439 | 34.83250 | 1246 ft | 119 kts | 119° |
| 2026-04-22 10:43 | 31.92137 | 34.84113 | 1219 ft | 111 kts | 104° |
| 2026-04-22 10:43 | 31.92092 | 34.84970 | 1260 ft | 102 kts | 64° |
| 2026-04-22 10:43 | 31.92580 | 34.85470 | 1218 ft | 88 kts | 23° |
| 2026-04-22 10:43 | 31.93118 | 34.85786 | 1182 ft | 87 kts | 22° |
| 2026-04-22 10:44 | 31.93668 | 34.86084 | 1227 ft | 85 kts | 20° |
| 2026-04-22 10:44 | 31.94173 | 34.86467 | 1263 ft | 88 kts | 34° |
| 2026-04-22 10:44 | 31.94634 | 34.86904 | 1245 ft | 87 kts | 32° |
| 2026-04-22 10:44 | 31.95092 | 34.87364 | 1256 ft | 89 kts | 53° |
| 2026-04-22 10:45 | 31.95394 | 34.88034 | 1234 ft | 96 kts | 52° |
| 2026-04-22 10:45 | 31.95794 | 34.88640 | 1247 ft | 93 kts | 45° |
| 2026-04-22 10:45 | 31.96173 | 34.89252 | 1294 ft | 93 kts | 46° |
| 2026-04-22 10:45 | 31.96572 | 34.89873 | 1133 ft | 98 kts | 46° |
| 2026-04-22 10:46 | 31.97038 | 34.90421 | 1156 ft | 93 kts | 36° |
| 2026-04-22 10:46 | 31.97542 | 34.90900 | 1172 ft | 94 kts | 34° |
| 2026-04-22 10:46 | 31.98067 | 34.91366 | 1193 ft | 94 kts | 31° |
| 2026-04-22 10:46 | 31.98588 | 34.91839 | 1213 ft | 92 kts | 33° |
| 2026-04-22 10:47 | 31.99118 | 34.92286 | 1150 ft | 95 kts | 29° |
| 2026-04-22 10:47 | 31.99656 | 34.92729 | 1149 ft | 91 kts | 33° |
| 2026-04-22 10:47 | 32.00160 | 34.93143 | 1159 ft | 84 kts | 26° |
| 2026-04-22 10:47 | 32.00653 | 34.93513 | 1125 ft | 83 kts | 28° |
| 2026-04-22 10:48 | 32.01136 | 34.93883 | 1116 ft | 82 kts | 25° |
| 2026-04-22 10:48 | 32.01608 | 34.94189 | 1242 ft | 81 kts | 21° |
| 2026-04-22 10:48 | 32.02186 | 34.94478 | 1198 ft | 97 kts | 2° |
| 2026-04-22 10:48 | 32.02660 | 34.94100 | 1230 ft | 87 kts | 298° |
| 2026-04-22 10:49 | 32.02882 | 34.93455 | 1209 ft | 85 kts | 300° |
| 2026-04-22 10:49 | 32.03128 | 34.92827 | 1189 ft | 83 kts | 302° |
| 2026-04-22 10:49 | 32.03337 | 34.92262 | 1128 ft | 71 kts | 295° |
| 2026-04-22 10:49 | 32.03459 | 34.91725 | 1151 ft | 67 kts | 284° |
| 2026-04-22 10:50 | 32.03194 | 34.91173 | 885 ft | 72 kts | 234° |
| 2026-04-22 10:50 | 32.02836 | 34.90720 | 614 ft | 82 kts | 227° |
| 2026-04-22 10:50 | 32.02339 | 34.90385 | 424 ft | 81 kts | 216° |
| 2026-04-22 10:50 | 32.01863 | 34.90062 | 221 ft | 80 kts | 218° |
| 2026-04-22 10:51 | 32.01438 | 34.89778 | 116 ft | 54 kts | 213° |
| 2026-04-22 10:51 | 32.01194 | 34.89623 | 117 ft | 31 kts | 209° |
| 2026-04-22 10:51 | 32.01047 | 34.89532 | 117 ft | 15 kts | 208° |
| 2026-04-22 10:51 | 32.00966 | 34.89485 | 117 ft | 6 kts | 179° |
| 2026-04-22 10:52 | 32.00954 | 34.89491 | 115 ft | 7 kts | 146° |
| 2026-04-22 10:52 | 32.00908 | 34.89577 | 115 ft | 11 kts | 119° |
| 2026-04-22 10:52 | 32.00904 | 34.89585 | 115 ft | 0 kts | 119° |
| 2026-04-22 10:53 | 32.00899 | 34.89596 | 115 ft | 7 kts | 119° |
| 2026-04-22 10:53 | 32.00885 | 34.89625 | 115 ft | 0 kts | 122° |
| 2026-04-22 10:54 | 32.00883 | 34.89628 | 115 ft | 3 kts | 121° |
| 2026-04-22 10:54 | 32.00850 | 34.89705 | 114 ft | 17 kts | 120° |
| 2026-04-22 10:54 | 32.00752 | 34.89712 | 114 ft | 19 kts | 209° |
| 2026-04-22 10:54 | 32.00708 | 34.89651 | 115 ft | 12 kts | 301° |
| 2026-04-22 10:55 | 32.00722 | 34.89621 | 115 ft | 0 kts | 295° |
| 2026-04-22 10:57 | 32.00713 | 34.89609 | 115 ft | 6 kts | 166° |
| 2026-04-22 10:58 | 32.00692 | 34.89663 | 114 ft | 11 kts | 176° |
| 2026-04-22 10:58 | 32.00611 | 34.89622 | 114 ft | 12 kts | 212° |
| 2026-04-22 10:58 | 32.00612 | 34.89567 | 114 ft | 15 kts | 298° |
| 2026-04-22 10:58 | 32.00689 | 34.89526 | 114 ft | 18 kts | 28° |
| 2026-04-22 10:59 | 32.00822 | 34.89613 | 115 ft | 19 kts | 30° |
| 2026-04-22 10:59 | 32.00902 | 34.89588 | 115 ft | 7 kts | 298° |
| 2026-04-22 10:59 | 32.00904 | 34.89586 | 115 ft | 0 kts | 297° |
| 2026-04-22 11:03 | 32.00908 | 34.89576 | 115 ft | 7 kts | 298° |
| 2026-04-22 11:03 | 32.00960 | 34.89466 | 117 ft | 22 kts | 298° |
| 2026-04-22 11:03 | 32.01030 | 34.89322 | 115 ft | 13 kts | 323° |
| 2026-04-22 11:03 | 32.01085 | 34.89323 | 115 ft | 7 kts | 28° |
| 2026-04-22 11:04 | 32.01132 | 34.89353 | 115 ft | 11 kts | 27° |
| 2026-04-22 11:04 | 32.01224 | 34.89412 | 115 ft | 19 kts | 27° |
| 2026-04-22 11:04 | 32.01358 | 34.89499 | 115 ft | 25 kts | 27° |
| 2026-04-22 11:04 | 32.01529 | 34.89608 | 115 ft | 30 kts | 26° |
| 2026-04-22 11:05 | 32.01646 | 34.89683 | 114 ft | 0 kts | 24° |
| 2026-04-22 11:07 | 32.01705 | 34.89720 | 113 ft | 20 kts | 27° |
| 2026-04-22 11:07 | 32.01837 | 34.89740 | 113 ft | 18 kts | 297° |
| 2026-04-22 11:07 | 32.01810 | 34.89507 | 112 ft | 52 kts | 260° |
| 2026-04-22 11:08 | 32.01742 | 34.88969 | 265 ft | 67 kts | 276° |
| 2026-04-22 11:08 | 32.01930 | 34.88559 | 511 ft | 56 kts | 333° |
| 2026-04-22 11:08 | 32.02352 | 34.88376 | 655 ft | 71 kts | 338° |
| 2026-04-22 11:08 | 32.02804 | 34.88176 | 907 ft | 69 kts | 342° |
| 2026-04-22 11:09 | 32.03275 | 34.87984 | 1140 ft | 73 kts | 344° |
| 2026-04-22 11:09 | 32.03821 | 34.87827 | 1202 ft | 84 kts | 352° |
| 2026-04-22 11:09 | 32.04429 | 34.87722 | 1147 ft | 85 kts | 352° |
| 2026-04-22 11:09 | 32.05016 | 34.87673 | 1162 ft | 92 kts | 356° |
| 2026-04-22 11:10 | 32.05664 | 34.87677 | 1233 ft | 95 kts | 0° |
| 2026-04-22 11:10 | 32.06337 | 34.87774 | 1221 ft | 98 kts | 7° |
| 2026-04-22 11:10 | 32.06992 | 34.87864 | 1149 ft | 94 kts | 355° |
| 2026-04-22 11:10 | 32.07543 | 34.87501 | 1127 ft | 93 kts | 327° |
| 2026-04-22 11:11 | 32.08071 | 34.87039 | 1127 ft | 97 kts | 326° |
| 2026-04-22 11:11 | 32.08637 | 34.86539 | 1121 ft | 107 kts | 327° |
| 2026-04-22 11:11 | 32.09260 | 34.86081 | 1132 ft | 102 kts | 331° |
| 2026-04-22 11:11 | 32.09846 | 34.85687 | 1187 ft | 91 kts | 333° |
| 2026-04-22 11:12 | 32.10331 | 34.85276 | 1229 ft | 86 kts | 340° |
| 2026-04-22 11:12 | 32.10895 | 34.85435 | 1201 ft | 94 kts | 38° |
| 2026-04-22 11:12 | 32.11312 | 34.86072 | 1171 ft | 102 kts | 46° |
| 2026-04-22 11:12 | 32.11829 | 34.86654 | 1241 ft | 99 kts | 32° |
| 2026-04-22 11:13 | 32.12309 | 34.87160 | 1258 ft | 86 kts | 37° |
| 2026-04-22 11:13 | 32.12733 | 34.87641 | 1247 ft | 85 kts | 37° |
| 2026-04-22 11:13 | 32.13145 | 34.88148 | 1165 ft | 86 kts | 40° |
| 2026-04-22 11:13 | 32.13616 | 34.88643 | 1149 ft | 96 kts | 32° |
| 2026-04-22 11:14 | 32.14174 | 34.89088 | 1140 ft | 97 kts | 28° |
| 2026-04-22 11:14 | 32.14787 | 34.89376 | 1123 ft | 94 kts | 7° |
| 2026-04-22 11:14 | 32.15437 | 34.89533 | 1130 ft | 98 kts | 8° |
| 2026-04-22 11:14 | 32.16103 | 34.89530 | 1160 ft | 97 kts | 347° |
| 2026-04-22 11:15 | 32.16786 | 34.89330 | 1097 ft | 101 kts | 343° |
| 2026-04-22 11:15 | 32.17447 | 34.89117 | 1177 ft | 96 kts | 345° |
| 2026-04-22 11:15 | 32.18095 | 34.88907 | 1188 ft | 99 kts | 346° |
| 2026-04-22 11:15 | 32.18757 | 34.88692 | 1216 ft | 100 kts | 344° |
| 2026-04-22 11:16 | 32.19412 | 34.88464 | 1296 ft | 95 kts | 346° |
| 2026-04-22 11:16 | 32.20100 | 34.88301 | 1238 ft | 104 kts | 353° |
| 2026-04-22 11:16 | 32.20778 | 34.88228 | 1198 ft | 92 kts | 354° |
| 2026-04-22 11:16 | 32.21397 | 34.88213 | 1055 ft | 80 kts | 359° |
| 2026-04-22 11:17 | 32.21930 | 34.88249 | 900 ft | 77 kts | 357° |
| 2026-04-22 11:17 | 32.22458 | 34.88295 | 778 ft | 86 kts | 2° |
| 2026-04-22 11:17 | 32.23097 | 34.88433 | 797 ft | 99 kts | 10° |
| 2026-04-22 11:17 | 32.23771 | 34.88612 | 867 ft | 101 kts | 11° |
| 2026-04-22 11:18 | 32.24487 | 34.88841 | 853 ft | 108 kts | 14° |
| 2026-04-22 11:18 | 32.25197 | 34.89084 | 986 ft | 92 kts | 12° |
| 2026-04-22 11:18 | 32.25764 | 34.89246 | 1345 ft | 78 kts | 11° |
| 2026-04-22 11:18 | 32.26114 | 34.89348 | 1419 ft | 86 kts | 12° |
| 2026-04-22 11:19 | 32.26775 | 34.89434 | 1462 ft | 97 kts | 4° |
| 2026-04-22 11:19 | 32.27688 | 34.89564 | 1516 ft | 103 kts | 4° |
| 2026-04-22 11:19 | 32.28413 | 34.89601 | 1514 ft | 104 kts | 5° |
| 2026-04-22 11:19 | 32.28895 | 34.89668 | 1528 ft | 106 kts | 10° |
| 2026-04-22 11:20 | 32.29619 | 34.89866 | 1536 ft | 102 kts | 14° |
| 2026-04-22 11:20 | 32.30317 | 34.90042 | 1534 ft | 103 kts | 9° |
| 2026-04-22 11:20 | 32.31009 | 34.90197 | 1473 ft | 110 kts | 8° |
| 2026-04-22 11:20 | 32.31744 | 34.90342 | 1456 ft | 102 kts | 6° |
| 2026-04-22 11:21 | 32.32456 | 34.90492 | 1326 ft | 108 kts | 7° |
| 2026-04-22 11:21 | 32.33108 | 34.90629 | 1497 ft | 96 kts | 7° |
| 2026-04-22 11:21 | 32.33776 | 34.90739 | 1545 ft | 94 kts | 6° |
| 2026-04-22 11:21 | 32.34480 | 34.90835 | 1499 ft | 109 kts | 3° |
| 2026-04-22 11:22 | 32.35213 | 34.90922 | 1439 ft | 103 kts | 2° |
| 2026-04-22 11:22 | 32.35908 | 34.90925 | 1482 ft | 100 kts | 358° |
| 2026-04-22 11:22 | 32.36604 | 34.90853 | 1459 ft | 100 kts | 355° |
| 2026-04-22 11:22 | 32.37265 | 34.90730 | 1549 ft | 93 kts | 348° |
| 2026-04-22 11:23 | 32.37909 | 34.90584 | 1549 ft | 98 kts | 346° |
| 2026-04-22 11:23 | 32.38603 | 34.90492 | 1509 ft | 101 kts | 354° |
| 2026-04-22 11:23 | 32.39315 | 34.90420 | 1519 ft | 103 kts | 354° |
| 2026-04-22 11:23 | 32.40041 | 34.90385 | 1464 ft | 110 kts | 360° |
| 2026-04-22 11:24 | 32.40782 | 34.90466 | 1478 ft | 105 kts | 6° |
| 2026-04-22 11:24 | 32.41502 | 34.90608 | 1486 ft | 105 kts | 11° |
| 2026-04-22 11:24 | 32.42197 | 34.90788 | 1601 ft | 99 kts | 9° |
| 2026-04-22 11:24 | 32.42891 | 34.90972 | 1525 ft | 110 kts | 8° |
| 2026-04-22 11:25 | 32.43632 | 34.91144 | 1508 ft | 109 kts | 8° |
| 2026-04-22 11:25 | 32.44379 | 34.91219 | 1494 ft | 106 kts | 2° |
| 2026-04-22 11:25 | 32.45108 | 34.91266 | 1468 ft | 105 kts | 1° |
| 2026-04-22 11:25 | 32.45780 | 34.91384 | 1580 ft | 93 kts | 26° |
| 2026-04-22 11:26 | 32.46236 | 34.91990 | 1502 ft | 107 kts | 67° |
| 2026-04-22 11:26 | 32.46406 | 34.92784 | 1907 ft | 89 kts | 71° |
| 2026-04-22 11:26 | 32.46547 | 34.93443 | 2264 ft | 77 kts | 73° |
| 2026-04-22 11:26 | 32.46701 | 34.94091 | 2465 ft | 88 kts | 68° |
| 2026-04-22 11:27 | 32.46881 | 34.94856 | 2450 ft | 99 kts | 75° |
| 2026-04-22 11:27 | 32.47050 | 34.95619 | 2661 ft | 92 kts | 73° |
| 2026-04-22 11:27 | 32.47232 | 34.96436 | 2551 ft | 116 kts | 76° |
| 2026-04-22 11:27 | 32.47412 | 34.97361 | 2410 ft | 118 kts | 75° |
| 2026-04-22 11:28 | 32.47557 | 34.98263 | 2444 ft | 108 kts | 81° |
| 2026-04-22 11:28 | 32.47684 | 34.99137 | 2439 ft | 108 kts | 82° |
| 2026-04-22 11:28 | 32.47751 | 35.00052 | 2481 ft | 111 kts | 82° |
| 2026-04-22 11:28 | 32.47849 | 35.00970 | 2551 ft | 117 kts | 79° |
| 2026-04-22 11:29 | 32.47950 | 35.01944 | 2487 ft | 123 kts | 80° |
| 2026-04-22 11:29 | 32.48122 | 35.02910 | 2493 ft | 119 kts | 75° |
| 2026-04-22 11:29 | 32.48278 | 35.03859 | 2413 ft | 117 kts | 75° |
| 2026-04-22 11:29 | 32.48538 | 35.04704 | 2509 ft | 108 kts | 62° |
| 2026-04-22 11:30 | 32.48869 | 35.05519 | 2487 ft | 110 kts | 62° |
| 2026-04-22 11:30 | 32.49192 | 35.06374 | 2518 ft | 114 kts | 61° |
| 2026-04-22 11:30 | 32.49535 | 35.07210 | 2453 ft | 117 kts | 61° |
| 2026-04-22 11:30 | 32.49907 | 35.08031 | 2529 ft | 110 kts | 57° |
| 2026-04-22 11:31 | 32.50291 | 35.08845 | 2506 ft | 114 kts | 58° |
| 2026-04-22 11:31 | 32.50676 | 35.09649 | 2595 ft | 112 kts | 60° |
| 2026-04-22 11:31 | 32.50992 | 35.10558 | 2564 ft | 118 kts | 65° |
| 2026-04-22 11:31 | 32.51294 | 35.11465 | 2454 ft | 121 kts | 65° |
| 2026-04-22 11:32 | 32.51668 | 35.12309 | 2510 ft | 115 kts | 54° |
| 2026-04-22 11:32 | 32.52122 | 35.13104 | 2510 ft | 115 kts | 50° |
| 2026-04-22 11:32 | 32.52616 | 35.13819 | 2467 ft | 112 kts | 45° |
| 2026-04-22 11:32 | 32.53137 | 35.14448 | 2511 ft | 108 kts | 40° |
| 2026-04-22 11:33 | 32.53692 | 35.15009 | 2546 ft | 106 kts | 35° |
| 2026-04-22 11:33 | 32.54247 | 35.15623 | 2516 ft | 110 kts | 40° |
| 2026-04-22 11:33 | 32.54780 | 35.16263 | 2536 ft | 111 kts | 42° |
| 2026-04-22 11:33 | 32.55334 | 35.16939 | 2489 ft | 116 kts | 41° |
| 2026-04-22 11:34 | 32.55898 | 35.17580 | 2577 ft | 108 kts | 38° |
| 2026-04-22 11:34 | 32.56445 | 35.18251 | 2491 ft | 120 kts | 53° |
| 2026-04-22 11:34 | 32.56764 | 35.19111 | 2552 ft | 108 kts | 64° |
| 2026-04-22 11:34 | 32.57055 | 35.19944 | 2536 ft | 109 kts | 63° |
| 2026-04-22 11:35 | 32.57373 | 35.20833 | 2510 ft | 122 kts | 62° |
| 2026-04-22 11:35 | 32.57735 | 35.21717 | 2461 ft | 123 kts | 63° |
| 2026-04-22 11:35 | 32.58054 | 35.22643 | 2442 ft | 119 kts | 63° |
| 2026-04-22 11:35 | 32.58387 | 35.23513 | 2414 ft | 113 kts | 57° |
| 2026-04-22 11:36 | 32.58688 | 35.24366 | 2422 ft | 109 kts | 59° |
| 2026-04-22 11:36 | 32.59026 | 35.25136 | 2415 ft | 104 kts | 56° |
| 2026-04-22 11:36 | 32.59412 | 35.25898 | 2431 ft | 111 kts | 54° |
| 2026-04-22 11:36 | 32.59837 | 35.26685 | 2557 ft | 115 kts | 55° |
| 2026-04-22 11:37 | 32.60303 | 35.27513 | 2566 ft | 126 kts | 51° |
| 2026-04-22 11:37 | 32.60839 | 35.28355 | 2595 ft | 123 kts | 49° |
| 2026-04-22 11:37 | 32.61374 | 35.29116 | 2454 ft | 122 kts | 45° |
| 2026-04-22 11:37 | 32.61884 | 35.29840 | 2485 ft | 110 kts | 48° |
| 2026-04-22 11:38 | 32.62346 | 35.30551 | 2420 ft | 110 kts | 51° |
| 2026-04-22 11:38 | 32.62782 | 35.31270 | 2477 ft | 104 kts | 46° |
| 2026-04-22 11:38 | 32.63593 | 35.32722 | 2506 ft | 113 kts | 56° |
| 2026-04-22 11:39 | 32.63984 | 35.33509 | 2532 ft | 110 kts | 57° |